Terminal Aerodrome Forecast
Issued by NWS

Home | Current Version | Previous Version | Text Only | Print | Product List | Glossary On
Versions: 1 2 3 4 5 6 7 8 9 10 11 12 13 14 15 16 17 18 19 20 21 22 23
424
FTUS44 KLIX 222324
TAFMCB
TAF
KMCB 222324Z 2300/2324 08005KT P6SM VCSH SCT008 BKN070 OVC110
     FM230200 VRB03KT P6SM SHRA VCTS OVC008CB
     FM230500 11005KT 5SM SHRA VCTS OVC008CB
     FM230900 VRB04KT 3SM SHRA VCTS OVC008CB
     FM231600 VRB03KT P6SM SHRA VCTS OVC010CB=

USA.gov is the U.S. government's official web portal to all federal, state and local government web resources and services.